Time;durP1;ratioP1;P1;durP2;ratioP2;P2;SDS_P1;SDS_P2;PMS_P1;PMS_P2;Temp;Humidity;BMP_temperature;BMP_pressure;BME280_temperature;BME280_humidity;BME280_pressure;Samples;Min_cycle;Max_cycle;Signal;HPM_P1;HPM_P2
2023/01/04 00:00:22;;;;;;;;;;;7.40;99.90;;;;;;4848065;29;19928;-70
2023/01/04 00:02:47;;;;;;;;;;;7.40;99.90;;;;;;4855134;29;19929;-71
2023/01/04 00:05:13;;;;;;;;;;;7.40;99.90;;;;;;4860949;29;19924;-70
2023/01/04 00:07:38;;;;;;;;;;;7.40;99.90;;;;;;4860642;29;20010;-70
2023/01/04 00:10:04;;;;;;;;;;;7.40;99.90;;;;;;4854959;29;19935;-70
2023/01/04 00:12:30;;;;;;;;;;;7.40;99.90;;;;;;4859506;29;20418;-70
2023/01/04 00:14:55;;;;;;;;;;;7.40;99.90;;;;;;4861999;29;19924;-70
2023/01/04 00:17:21;;;;;;;;;;;7.40;99.90;;;;;;4858623;29;19971;-70
2023/01/04 00:19:46;;;;;;;;;;;7.40;99.90;;;;;;4857275;29;20018;-70
2023/01/04 00:22:12;;;;;;;;;;;7.50;99.90;;;;;;4862127;29;19928;-70
2023/01/04 00:24:38;;;;;;;;;;;7.50;99.90;;;;;;4852230;29;19924;-70
2023/01/04 00:27:04;;;;;;;;;;;7.50;99.90;;;;;;4843198;29;20010;-70
2023/01/04 00:29:30;;;;;;;;;;;7.50;99.90;;;;;;4859181;29;19975;-70
2023/01/04 00:31:56;;;;;;;;;;;7.50;99.90;;;;;;4859128;29;20297;-70
2023/01/04 00:34:21;;;;;;;;;;;7.50;99.90;;;;;;4858617;29;20566;-70
2023/01/04 00:36:47;;;;;;;;;;;7.50;99.90;;;;;;4855642;29;20301;-70
2023/01/04 00:39:14;;;;;;;;;;;7.50;99.90;;;;;;4859169;29;19976;-70
2023/01/04 00:41:42;;;;;;;;;;;7.60;99.90;;;;;;4844071;29;20388;-70
2023/01/04 00:44:08;;;;;;;;;;;7.50;99.90;;;;;;4858205;29;19924;-70
2023/01/04 00:46:34;;;;;;;;;;;7.50;99.90;;;;;;4858518;29;19955;-70
2023/01/04 00:49:00;;;;;;;;;;;7.50;99.90;;;;;;4858142;29;19947;-70
2023/01/04 00:51:26;;;;;;;;;;;7.50;99.90;;;;;;4858437;29;20353;-70
2023/01/04 00:53:52;;;;;;;;;;;7.50;99.90;;;;;;4843158;29;20247;-70
2023/01/04 00:56:17;;;;;;;;;;;7.50;99.90;;;;;;4851773;29;19924;-70
2023/01/04 00:58:43;;;;;;;;;;;7.50;99.90;;;;;;4840164;29;19925;-70
2023/01/04 01:01:09;;;;;;;;;;;7.50;99.90;;;;;;4858310;29;19983;-70
2023/01/04 01:03:35;;;;;;;;;;;7.50;99.90;;;;;;4855883;29;19924;-70
2023/01/04 01:06:05;;;;;;;;;;;7.60;99.90;;;;;;4857231;29;20023;-70
2023/01/04 01:08:34;;;;;;;;;;;7.60;99.90;;;;;;4853884;29;19928;-70
2023/01/04 01:11:04;;;;;;;;;;;7.60;99.90;;;;;;4877035;29;19980;-70
2023/01/04 01:13:30;;;;;;;;;;;7.60;99.90;;;;;;4856123;29;20317;-70
2023/01/04 01:15:55;;;;;;;;;;;7.60;99.90;;;;;;4852890;29;19946;-70
2023/01/04 01:18:21;;;;;;;;;;;7.60;99.90;;;;;;4852753;29;19943;-70
2023/01/04 01:20:46;;;;;;;;;;;7.60;99.90;;;;;;4842162;29;20288;-70
2023/01/04 01:23:12;;;;;;;;;;;7.60;99.90;;;;;;4855325;29;19927;-71
2023/01/04 01:25:38;;;;;;;;;;;7.60;99.90;;;;;;4856290;29;19924;-71
2023/01/04 01:28:04;;;;;;;;;;;7.60;99.90;;;;;;4837151;29;19947;-71
2023/01/04 01:30:30;;;;;;;;;;;7.60;99.90;;;;;;4857423;29;20404;-71
2023/01/04 01:32:55;;;;;;;;;;;7.60;99.90;;;;;;4852775;29;19924;-71
2023/01/04 01:35:21;;;;;;;;;;;7.60;99.90;;;;;;4836882;29;20317;-70
2023/01/04 01:37:46;;;;;;;;;;;7.60;99.90;;;;;;4856090;29;19931;-70
2023/01/04 01:40:12;;;;;;;;;;;7.70;99.90;;;;;;4840042;29;20029;-71
2023/01/04 01:42:37;;;;;;;;;;;7.70;99.90;;;;;;4857706;29;20006;-70
2023/01/04 01:45:09;;;;;;;;;;;7.70;99.90;;;;;;4857831;29;19923;-70
2023/01/04 01:47:40;;;;;;;;;;;7.70;99.90;;;;;;4854903;29;20459;-70
2023/01/04 01:50:09;;;;;;;;;;;7.70;99.90;;;;;;4855867;29;20039;-71
2023/01/04 01:52:36;;;;;;;;;;;7.80;99.90;;;;;;4848647;29;20308;-71
2023/01/04 01:55:03;;;;;;;;;;;7.80;99.90;;;;;;4851674;29;19990;-71
2023/01/04 01:57:30;;;;;;;;;;;7.80;99.90;;;;;;4854374;29;20292;-71
2023/01/04 01:59:57;;;;;;;;;;;7.80;99.90;;;;;;4841321;29;20071;-71
2023/01/04 02:02:23;;;;;;;;;;;7.90;99.90;;;;;;4839259;29;19932;-71
2023/01/04 02:04:49;;;;;;;;;;;7.90;99.90;;;;;;4857674;29;19930;-71
2023/01/04 02:07:18;;;;;;;;;;;7.90;99.90;;;;;;4856783;29;19935;-70
2023/01/04 02:09:43;;;;;;;;;;;7.90;99.90;;;;;;4840356;29;20558;-71
2023/01/04 02:12:10;;;;;;;;;;;8.00;99.90;;;;;;4836237;29;19947;-71
2023/01/04 02:14:36;;;;;;;;;;;7.90;99.90;;;;;;4833497;29;19935;-71
2023/01/04 02:17:01;;;;;;;;;;;8.00;99.90;;;;;;4835915;29;19931;-70
2023/01/04 02:19:35;;;;;;;;;;;8.00;99.90;;;;;;4856971;29;19934;-70
2023/01/04 02:22:13;;;;;;;;;;;8.00;99.90;;;;;;4848843;29;19975;-71
2023/01/04 02:24:51;;;;;;;;;;;8.00;99.90;;;;;;4857059;29;19928;-71
2023/01/04 02:27:19;;;;;;;;;;;8.00;99.90;;;;;;4849044;29;19924;-71
2023/01/04 02:30:00;;;;;;;;;;;8.00;99.90;;;;;;4855853;29;20342;-71
2023/01/04 02:32:48;;;;;;;;;;;8.10;99.90;;;;;;4852108;29;19928;-71
2023/01/04 02:35:40;;;;;;;;;;;8.10;99.90;;;;;;4853337;29;19928;-71
2023/01/04 02:38:28;;;;;;;;;;;8.10;99.90;;;;;;4852648;29;19924;-71
2023/01/04 02:40:54;;;;;;;;;;;8.10;99.90;;;;;;4866516;29;19927;-72
2023/01/04 02:46:16;;;;;;;;;;;8.20;99.90;;;;;;4857071;29;19930;-71
2023/01/04 02:51:28;;;;;;;;;;;8.20;99.90;;;;;;4854260;29;20288;-71
2023/01/04 02:53:54;;;;;;;;;;;8.30;99.90;;;;;;4855786;29;19928;-71
2023/01/04 02:56:34;;;;;;;;;;;8.30;99.90;;;;;;4857007;29;19974;-71
2023/01/04 02:59:26;;;;;;;;;;;8.30;99.90;;;;;;4870446;29;20023;-71
2023/01/04 03:07:52;;;;;;;;;;;8.30;99.90;;;;;;4844071;29;20022;-71
2023/01/04 03:10:36;;;;;;;;;;;8.30;99.90;;;;;;4850292;29;19967;-71
2023/01/04 03:13:08;;;;;;;;;;;8.30;99.90;;;;;;4842793;29;20565;-71
2023/01/04 03:15:35;;;;;;;;;;;8.30;99.90;;;;;;4853795;29;19972;-71
2023/01/04 03:18:06;;;;;;;;;;;8.30;99.90;;;;;;4841132;29;19928;-71
2023/01/04 03:20:32;;;;;;;;;;;8.30;99.90;;;;;;4856726;29;20321;-71
2023/01/04 03:37:08;;;;;;;;;;;8.40;99.90;;;;;;4815124;29;19960;-71
2023/01/04 03:48:32;;;;;;;;;;;8.40;99.90;;;;;;4851132;29;20470;-71
2023/01/04 03:51:00;;;;;;;;;;;8.50;99.90;;;;;;4853265;29;19948;-71
2023/01/04 03:53:26;;;;;;;;;;;8.60;99.90;;;;;;4851492;29;20234;-71
2023/01/04 03:55:53;;;;;;;;;;;8.70;99.90;;;;;;4854860;29;20053;-71
2023/01/04 03:58:19;;;;;;;;;;;8.80;99.90;;;;;;4853103;29;19932;-71
2023/01/04 04:00:45;;;;;;;;;;;8.90;99.90;;;;;;4835928;29;19983;-71
2023/01/04 04:03:11;;;;;;;;;;;9.00;99.90;;;;;;4843913;29;19932;-71
2023/01/04 04:08:26;;;;;;;;;;;9.20;99.90;;;;;;4858833;29;19959;-71
2023/01/04 04:10:52;;;;;;;;;;;9.20;99.90;;;;;;4859230;29;20255;-71
2023/01/04 04:13:18;;;;;;;;;;;9.20;99.90;;;;;;4848951;29;19928;-71
2023/01/04 04:15:43;;;;;;;;;;;9.20;99.90;;;;;;4853143;29;19931;-71
2023/01/04 04:18:09;;;;;;;;;;;9.30;99.90;;;;;;4859545;29;19934;-71
2023/01/04 04:20:35;;;;;;;;;;;9.30;99.90;;;;;;4838640;29;20014;-71
2023/01/04 04:23:00;;;;;;;;;;;9.40;99.90;;;;;;4857114;29;19928;-71
2023/01/04 04:25:26;;;;;;;;;;;9.40;99.90;;;;;;4859356;29;19928;-71
2023/01/04 04:27:51;;;;;;;;;;;9.50;99.90;;;;;;4856967;29;20359;-71
2023/01/04 04:30:17;;;;;;;;;;;9.50;99.90;;;;;;4874552;29;19951;-71
2023/01/04 04:32:43;;;;;;;;;;;9.60;99.90;;;;;;4858439;29;20300;-71
2023/01/04 04:35:08;;;;;;;;;;;9.60;99.90;;;;;;4855776;29;19955;-71
2023/01/04 04:37:36;;;;;;;;;;;9.70;99.90;;;;;;4871781;29;19936;-71
2023/01/04 04:40:02;;;;;;;;;;;9.70;99.90;;;;;;4858191;29;20376;-71
2023/01/04 04:42:27;;;;;;;;;;;9.80;99.90;;;;;;4854128;29;20064;-71
2023/01/04 04:44:53;;;;;;;;;;;9.80;99.90;;;;;;4845795;29;20308;-71
2023/01/04 04:47:18;;;;;;;;;;;9.80;99.90;;;;;;4843981;29;19928;-71
2023/01/04 04:49:44;;;;;;;;;;;9.90;99.90;;;;;;4839846;29;19930;-71
2023/01/04 04:52:09;;;;;;;;;;;9.90;99.90;;;;;;4843468;29;20011;-71
2023/01/04 04:54:35;;;;;;;;;;;9.90;99.90;;;;;;4851010;29;19924;-71
2023/01/04 04:57:00;;;;;;;;;;;9.90;99.90;;;;;;4856798;29;19927;-72
2023/01/04 04:59:26;;;;;;;;;;;10.00;99.90;;;;;;4857365;29;19927;-72
2023/01/04 05:01:51;;;;;;;;;;;9.90;99.90;;;;;;4855708;29;20464;-72
2023/01/04 05:04:18;;;;;;;;;;;9.90;99.90;;;;;;4841991;29;19924;-72
2023/01/04 05:06:45;;;;;;;;;;;9.90;99.90;;;;;;4858027;29;20575;-72
2023/01/04 05:09:11;;;;;;;;;;;9.90;99.90;;;;;;4870781;29;20269;-72
2023/01/04 05:14:21;;;;;;;;;;;9.90;99.90;;;;;;4873732;29;19931;-71
2023/01/04 05:16:46;;;;;;;;;;;9.90;99.90;;;;;;4838057;29;20441;-71
2023/01/04 05:19:12;;;;;;;;;;;9.80;99.90;;;;;;4851396;29;20022;-72
2023/01/04 05:21:39;;;;;;;;;;;9.70;99.90;;;;;;4855015;29;20444;-72
2023/01/04 05:24:06;;;;;;;;;;;9.70;99.90;;;;;;4827168;29;19938;-71
2023/01/04 05:26:31;;;;;;;;;;;9.60;99.90;;;;;;4858114;29;19928;-72
2023/01/04 05:28:57;;;;;;;;;;;9.50;99.90;;;;;;4858036;29;19934;-72
2023/01/04 05:31:23;;;;;;;;;;;9.50;99.90;;;;;;4870610;29;19943;-72
2023/01/04 05:33:48;;;;;;;;;;;9.50;99.90;;;;;;4855320;29;19987;-72
2023/01/04 05:36:14;;;;;;;;;;;9.40;99.90;;;;;;4842667;29;20230;-72
2023/01/04 05:38:39;;;;;;;;;;;9.40;99.90;;;;;;4857236;29;19927;-71
2023/01/04 05:42:24;;;;;;;;;;;9.40;99.90;;;;;;4852189;29;19924;-72
2023/01/04 05:43:51;;;;;;;;;;;9.40;99.90;;;;;;4854380;29;20010;-72
2023/01/04 05:46:16;;;;;;;;;;;9.40;99.90;;;;;;4843003;29;20014;-72
2023/01/04 05:48:42;;;;;;;;;;;9.30;99.90;;;;;;4840146;29;19927;-71
2023/01/04 05:51:07;;;;;;;;;;;9.30;99.90;;;;;;4857506;29;20487;-71
2023/01/04 05:53:33;;;;;;;;;;;9.30;99.90;;;;;;4851255;29;20372;-71
2023/01/04 05:55:58;;;;;;;;;;;9.30;99.90;;;;;;4856417;29;19930;-71
2023/01/04 05:58:24;;;;;;;;;;;9.30;99.90;;;;;;4840916;29;20015;-71
2023/01/04 06:00:49;;;;;;;;;;;9.30;99.90;;;;;;4850620;29;19924;-72
2023/01/04 06:03:15;;;;;;;;;;;9.50;99.90;;;;;;4856353;29;19931;-70
2023/01/04 06:05:41;;;;;;;;;;;9.60;99.90;;;;;;4856771;29;20155;-70
2023/01/04 06:08:06;;;;;;;;;;;9.70;99.90;;;;;;4854566;29;20653;-70
2023/01/04 06:10:32;;;;;;;;;;;9.80;99.90;;;;;;4838609;29;19940;-70
2023/01/04 06:12:58;;;;;;;;;;;9.80;99.90;;;;;;4839082;29;19925;-71
2023/01/04 06:15:23;;;;;;;;;;;9.80;99.90;;;;;;4850151;29;19924;-72
2023/01/04 06:17:49;;;;;;;;;;;9.90;99.90;;;;;;4841534;29;20345;-71
2023/01/04 06:20:14;;;;;;;;;;;9.90;99.90;;;;;;4836899;29;19931;-71
2023/01/04 06:22:40;;;;;;;;;;;9.90;99.90;;;;;;4848716;29;19951;-71
2023/01/04 06:25:07;;;;;;;;;;;9.90;99.90;;;;;;4850223;29;20015;-71
2023/01/04 06:27:32;;;;;;;;;;;9.90;99.90;;;;;;4851351;29;19931;-71
2023/01/04 06:29:58;;;;;;;;;;;9.90;99.90;;;;;;4832191;29;19924;-71
2023/01/04 06:32:24;;;;;;;;;;;9.90;99.90;;;;;;4822056;29;19992;-71
2023/01/04 06:34:49;;;;;;;;;;;9.90;99.90;;;;;;4853659;29;20405;-71
2023/01/04 06:37:15;;;;;;;;;;;9.90;99.90;;;;;;4853535;29;19982;-70
2023/01/04 06:39:40;;;;;;;;;;;9.90;99.90;;;;;;4848188;29;19984;-70
2023/01/04 06:42:43;;;;;;;;;;;9.90;99.90;;;;;;4847203;29;19927;-71
2023/01/04 06:44:51;;;;;;;;;;;10.00;99.90;;;;;;4853916;29;19936;-71
2023/01/04 06:47:17;;;;;;;;;;;10.00;99.90;;;;;;4838140;29;19924;-71
2023/01/04 06:49:42;;;;;;;;;;;10.00;99.90;;;;;;4869742;29;19928;-71
2023/01/04 06:52:08;;;;;;;;;;;10.00;99.90;;;;;;4846230;29;19975;-71
2023/01/04 06:54:34;;;;;;;;;;;10.00;99.90;;;;;;4840616;29;20501;-71
2023/01/04 06:56:59;;;;;;;;;;;10.00;99.90;;;;;;4853757;29;19924;-71
2023/01/04 06:59:25;;;;;;;;;;;10.00;99.90;;;;;;4851174;29;19924;-71
2023/01/04 07:01:50;;;;;;;;;;;10.00;99.90;;;;;;4853234;29;19924;-71
2023/01/04 07:04:16;;;;;;;;;;;10.00;99.90;;;;;;4853469;29;20378;-71
2023/01/04 07:06:41;;;;;;;;;;;10.00;99.90;;;;;;4865399;29;19975;-71
2023/01/04 07:09:07;;;;;;;;;;;10.00;99.90;;;;;;4868536;29;19964;-71
2023/01/04 07:11:33;;;;;;;;;;;10.00;99.90;;;;;;4819191;29;20424;-71
2023/01/04 07:13:58;;;;;;;;;;;10.00;99.90;;;;;;4846232;29;20432;-71
2023/01/04 07:16:24;;;;;;;;;;;10.00;99.90;;;;;;4848966;29;19924;-71
2023/01/04 07:18:49;;;;;;;;;;;9.90;99.90;;;;;;4844159;29;20007;-71
2023/01/04 07:21:15;;;;;;;;;;;10.00;99.90;;;;;;4851743;29;20052;-71
2023/01/04 07:23:40;;;;;;;;;;;10.00;99.90;;;;;;4853970;29;19924;-70
2023/01/04 07:26:06;;;;;;;;;;;9.90;99.90;;;;;;4852608;29;19928;-71
2023/01/04 07:31:16;;;;;;;;;;;9.90;99.90;;;;;;4844783;29;19968;-70
2023/01/04 07:33:41;;;;;;;;;;;9.90;99.90;;;;;;4853235;29;19964;-71
2023/01/04 07:36:07;;;;;;;;;;;9.90;99.90;;;;;;4836768;29;19928;-72
2023/01/04 07:38:33;;;;;;;;;;;9.90;99.90;;;;;;4871993;29;20292;-71
2023/01/04 07:40:59;;;;;;;;;;;9.90;99.90;;;;;;4857483;29;19960;-71
2023/01/04 07:43:25;;;;;;;;;;;9.90;99.90;;;;;;4856618;29;20031;-71
2023/01/04 07:45:50;;;;;;;;;;;9.90;99.90;;;;;;4838319;29;19964;-71
2023/01/04 07:48:16;;;;;;;;;;;9.90;99.90;;;;;;4842015;29;19931;-71
2023/01/04 07:50:43;;;;;;;;;;;9.90;99.90;;;;;;4851415;29;20031;-72
2023/01/04 07:53:09;;;;;;;;;;;9.90;99.90;;;;;;4851194;29;19924;-72
2023/01/04 07:55:34;;;;;;;;;;;10.00;99.90;;;;;;4854004;29;19928;-72
2023/01/04 07:58:00;;;;;;;;;;;9.90;99.90;;;;;;4842211;29;20000;-72
2023/01/04 08:00:25;;;;;;;;;;;10.00;99.90;;;;;;4848956;29;19944;-72
2023/01/04 08:02:54;;;;;;;;;;;10.00;99.90;;;;;;4857127;29;19931;-72
2023/01/04 08:05:25;;;;;;;;;;;10.00;99.90;;;;;;4856981;29;20044;-72
2023/01/04 08:07:53;;;;;;;;;;;10.00;99.90;;;;;;4850897;29;21586;-73
2023/01/04 08:10:19;;;;;;;;;;;10.00;99.90;;;;;;4843363;29;20036;-72
2023/01/04 08:12:45;;;;;;;;;;;10.00;99.90;;;;;;4857718;29;19959;-72
2023/01/04 08:15:11;;;;;;;;;;;10.00;99.90;;;;;;4853531;29;20428;-72
2023/01/04 08:17:37;;;;;;;;;;;10.00;99.90;;;;;;4843016;29;20054;-71
2023/01/04 08:20:02;;;;;;;;;;;10.00;99.90;;;;;;4855466;29;19924;-72
2023/01/04 08:22:29;;;;;;;;;;;10.00;99.90;;;;;;4853494;29;19980;-72
2023/01/04 08:24:55;;;;;;;;;;;10.00;99.90;;;;;;4835186;29;19925;-72
2023/01/04 08:27:20;;;;;;;;;;;10.00;99.90;;;;;;4849073;29;19928;-71
2023/01/04 08:29:46;;;;;;;;;;;10.00;99.90;;;;;;4852247;29;20079;-72
2023/01/04 08:32:11;;;;;;;;;;;10.00;99.90;;;;;;4832798;29;19939;-72
2023/01/04 08:34:37;;;;;;;;;;;10.00;99.90;;;;;;4852830;29;20422;-72
2023/01/04 08:37:03;;;;;;;;;;;10.00;99.90;;;;;;4851705;29;19924;-72
2023/01/04 08:39:32;;;;;;;;;;;10.10;99.90;;;;;;4854110;29;20045;-72
2023/01/04 08:41:57;;;;;;;;;;;10.00;99.90;;;;;;4868015;29;19929;-71
2023/01/04 08:44:24;;;;;;;;;;;10.00;99.90;;;;;;4849398;29;20229;-72
2023/01/04 08:46:51;;;;;;;;;;;10.10;99.90;;;;;;4851742;29;19935;-72
2023/01/04 08:49:17;;;;;;;;;;;10.10;99.90;;;;;;4850385;29;19924;-72
2023/01/04 08:51:44;;;;;;;;;;;10.10;99.90;;;;;;4868196;29;19940;-72
2023/01/04 08:54:10;;;;;;;;;;;10.10;99.90;;;;;;4852235;29;19928;-71
2023/01/04 08:56:36;;;;;;;;;;;10.10;99.90;;;;;;4849632;29;19951;-71
2023/01/04 08:59:02;;;;;;;;;;;10.10;99.90;;;;;;4852744;29;20300;-72
2023/01/04 09:01:27;;;;;;;;;;;10.10;99.90;;;;;;4854492;29;19928;-72
2023/01/04 09:03:54;;;;;;;;;;;10.10;99.90;;;;;;4850197;29;19924;-71
2023/01/04 09:06:20;;;;;;;;;;;10.10;99.90;;;;;;4855480;29;19939;-72
2023/01/04 09:08:46;;;;;;;;;;;10.10;99.90;;;;;;4845807;29;19928;-72
2023/01/04 09:11:13;;;;;;;;;;;10.20;99.90;;;;;;4856290;29;20301;-72
2023/01/04 09:13:39;;;;;;;;;;;10.20;99.90;;;;;;4852541;29;19924;-72
2023/01/04 09:16:06;;;;;;;;;;;10.20;99.90;;;;;;4856555;29;19931;-71
2023/01/04 09:18:31;;;;;;;;;;;10.20;99.90;;;;;;4856458;29;20651;-72
2023/01/04 09:20:57;;;;;;;;;;;10.20;99.90;;;;;;4852348;29;19935;-71
2023/01/04 09:23:29;;;;;;;;;;;10.30;99.90;;;;;;4847288;29;19981;-71
2023/01/04 09:25:55;;;;;;;;;;;10.30;99.90;;;;;;4836596;29;19924;-73
2023/01/04 09:28:20;;;;;;;;;;;10.30;99.90;;;;;;4845993;29;19936;-72
2023/01/04 09:30:46;;;;;;;;;;;10.30;99.90;;;;;;4835740;29;19937;-72
2023/01/04 09:33:11;;;;;;;;;;;10.40;99.90;;;;;;4847576;29;19959;-72
2023/01/04 09:35:37;;;;;;;;;;;10.40;99.90;;;;;;4846031;29;19935;-72
2023/01/04 09:38:03;;;;;;;;;;;10.40;99.90;;;;;;4845573;29;19932;-71
2023/01/04 09:40:40;;;;;;;;;;;10.40;99.90;;;;;;4848085;29;19931;-71
2023/01/04 09:43:10;;;;;;;;;;;10.40;99.90;;;;;;4851922;29;20281;-72
2023/01/04 09:45:42;;;;;;;;;;;10.40;99.90;;;;;;4849251;29;19936;-72
2023/01/04 09:48:17;;;;;;;;;;;10.50;99.90;;;;;;4834330;29;19928;-71
2023/01/04 09:50:43;;;;;;;;;;;10.50;99.90;;;;;;4846464;29;20015;-71
2023/01/04 09:53:08;;;;;;;;;;;10.50;99.90;;;;;;4866804;29;19959;-71
2023/01/04 09:55:36;;;;;;;;;;;10.50;99.90;;;;;;4850657;29;20377;-72
2023/01/04 09:58:05;;;;;;;;;;;10.60;99.90;;;;;;4847544;29;20010;-72
2023/01/04 10:00:33;;;;;;;;;;;10.60;99.90;;;;;;4848737;29;19928;-71
2023/01/04 10:03:06;;;;;;;;;;;10.60;99.90;;;;;;4851229;29;19972;-72
2023/01/04 10:05:33;;;;;;;;;;;10.60;99.90;;;;;;4852118;29;19928;-72
2023/01/04 10:08:00;;;;;;;;;;;10.60;99.90;;;;;;4852262;29;19929;-72
2023/01/04 10:10:33;;;;;;;;;;;10.70;99.90;;;;;;4844374;29;19929;-72
2023/01/04 10:13:04;;;;;;;;;;;10.70;99.90;;;;;;4836196;29;20019;-72
2023/01/04 10:15:33;;;;;;;;;;;10.70;99.90;;;;;;4865343;29;19939;-72
2023/01/04 10:17:59;;;;;;;;;;;10.70;99.90;;;;;;4847661;29;20378;-71
2023/01/04 10:20:30;;;;;;;;;;;10.80;99.90;;;;;;4852324;29;19952;-72
2023/01/04 10:23:01;;;;;;;;;;;10.80;99.90;;;;;;4837425;29;19927;-72
2023/01/04 10:25:27;;;;;;;;;;;10.90;99.90;;;;;;4839429;29;20031;-71
2023/01/04 10:28:02;;;;;;;;;;;10.90;99.90;;;;;;4849678;29;19968;-71
2023/01/04 10:30:43;;;;;;;;;;;10.90;99.90;;;;;;4852782;29;19932;-72
2023/01/04 10:33:13;;;;;;;;;;;10.90;99.90;;;;;;4838985;29;20409;-72
2023/01/04 10:35:40;;;;;;;;;;;10.90;99.90;;;;;;4873560;29;19935;-71
2023/01/04 10:38:16;;;;;;;;;;;10.90;99.90;;;;;;4850351;29;19947;-73
2023/01/04 10:40:46;;;;;;;;;;;11.00;99.90;;;;;;4847749;29;21368;-72
2023/01/04 10:43:11;;;;;;;;;;;11.00;99.90;;;;;;4843902;29;19931;-72
2023/01/04 10:45:49;;;;;;;;;;;11.00;99.90;;;;;;4848536;29;19932;-72
2023/01/04 10:48:33;;;;;;;;;;;11.00;99.90;;;;;;4863219;29;19979;-72
2023/01/04 10:51:01;;;;;;;;;;;11.00;99.90;;;;;;4848891;29;20020;-71
2023/01/04 10:53:35;;;;;;;;;;;11.00;99.90;;;;;;4848033;29;19928;-70
2023/01/04 10:56:03;;;;;;;;;;;11.00;99.90;;;;;;4848431;29;19974;-70
2023/01/04 10:58:42;;;;;;;;;;;10.90;99.90;;;;;;4834432;29;20078;-71
2023/01/04 11:01:34;;;;;;;;;;;10.80;99.90;;;;;;4848845;29;19995;-71
2023/01/04 11:04:19;;;;;;;;;;;10.70;99.90;;;;;;4823589;29;20270;-71
2023/01/04 11:06:51;;;;;;;;;;;10.70;99.90;;;;;;4845459;29;19936;-72
2023/01/04 11:09:19;;;;;;;;;;;10.70;99.90;;;;;;4848309;29;19924;-72
2023/01/04 11:11:45;;;;;;;;;;;10.70;99.90;;;;;;4845169;29;19936;-72
2023/01/04 11:14:12;;;;;;;;;;;10.70;99.90;;;;;;4846700;29;20491;-71
2023/01/04 11:16:42;;;;;;;;;;;10.80;99.90;;;;;;4867866;29;19963;-71
2023/01/04 11:19:09;;;;;;;;;;;10.80;99.90;;;;;;4835115;29;20383;-71
2023/01/04 11:21:39;;;;;;;;;;;10.80;99.90;;;;;;4846311;29;19931;-71
2023/01/04 11:24:06;;;;;;;;;;;10.90;99.90;;;;;;4833668;29;19925;-71
2023/01/04 11:26:37;;;;;;;;;;;10.90;99.90;;;;;;4847427;29;19932;-71
2023/01/04 11:29:11;;;;;;;;;;;10.90;99.90;;;;;;4873655;29;20458;-70
2023/01/04 11:31:45;;;;;;;;;;;10.90;99.90;;;;;;4845958;29;19984;-71
2023/01/04 11:34:13;;;;;;;;;;;10.90;99.90;;;;;;4846249;29;19931;-72
2023/01/04 11:36:43;;;;;;;;;;;10.90;99.90;;;;;;4837222;29;19932;-71
2023/01/04 11:39:22;;;;;;;;;;;11.00;99.90;;;;;;4845425;29;19956;-72
2023/01/04 11:42:07;;;;;;;;;;;11.00;99.90;;;;;;4849893;29;20305;-71
2023/01/04 11:44:33;;;;;;;;;;;11.00;99.90;;;;;;4862695;29;19928;-71
2023/01/04 11:47:05;;;;;;;;;;;11.00;99.90;;;;;;4848869;29;19932;-71
2023/01/04 11:49:35;;;;;;;;;;;11.00;99.90;;;;;;4846488;29;19935;-71
2023/01/04 11:52:04;;;;;;;;;;;11.00;99.90;;;;;;4846496;29;19936;-72
2023/01/04 11:54:30;;;;;;;;;;;11.00;99.90;;;;;;4848874;29;19925;-71
2023/01/04 11:57:11;;;;;;;;;;;11.00;99.90;;;;;;4833429;29;20273;-70
2023/01/04 11:59:37;;;;;;;;;;;11.00;99.90;;;;;;4832705;29;19928;-71
2023/01/04 12:02:15;;;;;;;;;;;11.00;99.90;;;;;;4843620;29;19948;-71
2023/01/04 12:04:41;;;;;;;;;;;11.00;99.90;;;;;;4844682;29;19939;-70
2023/01/04 12:07:29;;;;;;;;;;;11.00;99.90;;;;;;4856951;29;19934;-71
2023/01/04 12:09:57;;;;;;;;;;;11.00;99.90;;;;;;4870048;29;19924;-71
2023/01/04 12:12:26;;;;;;;;;;;11.00;99.90;;;;;;4843976;29;19936;-71
2023/01/04 12:14:52;;;;;;;;;;;11.00;99.90;;;;;;4848664;29;20240;-71
2023/01/04 12:17:20;;;;;;;;;;;11.00;99.90;;;;;;4847739;29;19979;-71
2023/01/04 12:19:46;;;;;;;;;;;11.00;99.90;;;;;;4846849;29;19959;-71
2023/01/04 12:22:20;;;;;;;;;;;10.90;99.90;;;;;;4837067;29;19932;-71
2023/01/04 12:24:45;;;;;;;;;;;10.90;99.90;;;;;;4865996;29;20353;-71
2023/01/04 12:27:14;;;;;;;;;;;10.90;99.90;;;;;;4870089;29;19928;-72
2023/01/04 12:29:42;;;;;;;;;;;10.90;99.90;;;;;;4866621;29;19975;-70
2023/01/04 12:32:10;;;;;;;;;;;10.90;99.90;;;;;;4847124;29;19935;-71
2023/01/04 12:34:36;;;;;;;;;;;10.90;99.90;;;;;;4855686;29;19928;-71
2023/01/04 12:37:02;;;;;;;;;;;10.80;99.90;;;;;;4852082;29;20439;-71
2023/01/04 12:39:37;;;;;;;;;;;10.80;99.90;;;;;;4849892;29;19938;-72
2023/01/04 12:42:06;;;;;;;;;;;10.80;99.90;;;;;;4849554;29;19927;-71
2023/01/04 12:44:35;;;;;;;;;;;10.80;99.90;;;;;;4852106;29;19931;-71
2023/01/04 12:49:58;;;;;;;;;;;10.80;99.90;;;;;;4851575;29;19928;-71
2023/01/04 12:52:23;;;;;;;;;;;10.80;99.90;;;;;;4851402;29;19939;-72
2023/01/04 12:54:50;;;;;;;;;;;10.90;99.90;;;;;;4849086;29;19924;-71
2023/01/04 12:57:16;;;;;;;;;;;10.90;99.90;;;;;;4855378;29;19987;-72
2023/01/04 12:59:55;;;;;;;;;;;10.90;99.90;;;;;;4844083;29;19928;-70
2023/01/04 13:02:21;;;;;;;;;;;10.90;99.90;;;;;;4856873;29;19928;-72
2023/01/04 13:04:48;;;;;;;;;;;10.90;99.90;;;;;;4856950;29;19948;-71
2023/01/04 13:07:16;;;;;;;;;;;10.90;99.90;;;;;;4854107;29;20449;-70
2023/01/04 13:09:47;;;;;;;;;;;11.00;99.90;;;;;;4852174;29;19927;-71
2023/01/04 13:12:27;;;;;;;;;;;10.90;99.90;;;;;;4838180;29;20475;-71
2023/01/04 13:14:57;;;;;;;;;;;10.90;99.90;;;;;;4877329;29;19957;-72
2023/01/04 13:17:24;;;;;;;;;;;10.90;99.90;;;;;;4858796;29;20026;-72
2023/01/04 13:19:50;;;;;;;;;;;10.90;99.90;;;;;;4856725;29;19932;-71
2023/01/04 13:22:17;;;;;;;;;;;10.90;99.90;;;;;;4857958;29;20376;-71
2023/01/04 13:24:44;;;;;;;;;;;10.90;99.90;;;;;;4853369;29;19927;-72
2023/01/04 13:27:17;;;;;;;;;;;10.90;99.90;;;;;;4841541;29;19930;-70
2023/01/04 13:29:43;;;;;;;;;;;10.90;99.90;;;;;;4854143;29;20324;-71
2023/01/04 13:32:18;;;;;;;;;;;10.90;99.90;;;;;;4841437;29;19928;-71
2023/01/04 13:34:49;;;;;;;;;;;10.90;99.90;;;;;;4846897;29;19927;-70
2023/01/04 13:37:18;;;;;;;;;;;10.90;99.90;;;;;;4878639;29;20397;-71
2023/01/04 13:39:49;;;;;;;;;;;10.90;99.90;;;;;;4853082;29;19931;-71
2023/01/04 13:42:38;;;;;;;;;;;10.90;99.90;;;;;;4859505;29;20046;-70
2023/01/04 13:45:13;;;;;;;;;;;10.90;99.90;;;;;;4853209;29;20899;-71
2023/01/04 13:47:40;;;;;;;;;;;10.90;99.90;;;;;;4856080;29;19923;-70
2023/01/04 13:50:12;;;;;;;;;;;10.90;99.90;;;;;;4853419;29;19970;-70
2023/01/04 13:52:42;;;;;;;;;;;10.90;99.90;;;;;;4869248;29;19958;-72
2023/01/04 13:55:10;;;;;;;;;;;10.90;99.90;;;;;;4874356;29;19931;-71
2023/01/04 13:57:35;;;;;;;;;;;10.90;99.90;;;;;;4855661;29;20014;-71
2023/01/04 14:00:03;;;;;;;;;;;10.90;99.90;;;;;;4839079;29;20024;-72
2023/01/04 14:02:30;;;;;;;;;;;10.90;99.90;;;;;;4841041;29;19924;-72
2023/01/04 14:04:55;;;;;;;;;;;10.90;99.90;;;;;;4838793;29;19928;-71
2023/01/04 14:07:22;;;;;;;;;;;10.80;99.90;;;;;;4849527;29;19939;-70
2023/01/04 14:09:50;;;;;;;;;;;10.80;99.90;;;;;;4850886;29;19932;-70
2023/01/04 14:12:17;;;;;;;;;;;10.80;99.90;;;;;;4854386;29;19928;-70
2023/01/04 14:14:56;;;;;;;;;;;10.70;99.90;;;;;;4847153;29;19943;-71
2023/01/04 14:17:29;;;;;;;;;;;10.70;99.90;;;;;;4847381;29;20789;-72
2023/01/04 14:20:01;;;;;;;;;;;10.70;99.90;;;;;;4838776;29;19972;-71
2023/01/04 14:22:36;;;;;;;;;;;10.70;99.90;;;;;;4850030;29;19956;-71
2023/01/04 14:25:20;;;;;;;;;;;10.70;99.90;;;;;;4855256;29;19928;-71
2023/01/04 14:27:45;;;;;;;;;;;10.70;99.90;;;;;;4851805;29;19932;-71
2023/01/04 14:30:17;;;;;;;;;;;10.70;99.90;;;;;;4851525;29;20586;-71
2023/01/04 14:32:53;;;;;;;;;;;10.70;99.90;;;;;;4851424;29;19932;-71
2023/01/04 14:35:19;;;;;;;;;;;10.70;99.90;;;;;;4866063;29;19924;-70
2023/01/04 14:37:45;;;;;;;;;;;10.70;99.90;;;;;;4849452;29;19976;-71
2023/01/04 14:40:21;;;;;;;;;;;10.70;99.90;;;;;;4843938;29;20381;-71
2023/01/04 14:42:47;;;;;;;;;;;10.70;99.90;;;;;;4846532;29;19928;-71
2023/01/04 14:45:12;;;;;;;;;;;10.70;99.90;;;;;;4848098;29;19941;-71
2023/01/04 14:47:38;;;;;;;;;;;10.70;99.90;;;;;;4849579;29;19934;-71
2023/01/04 14:50:04;;;;;;;;;;;10.70;99.90;;;;;;4848138;29;20502;-71
2023/01/04 14:52:29;;;;;;;;;;;10.70;99.90;;;;;;4849628;29;20320;-71
2023/01/04 14:54:56;;;;;;;;;;;10.70;99.90;;;;;;4847990;29;20083;-71
2023/01/04 14:57:22;;;;;;;;;;;10.60;99.90;;;;;;4871921;29;19931;-71
2023/01/04 14:59:47;;;;;;;;;;;10.60;99.90;;;;;;4846873;29;19924;-71
2023/01/04 15:02:16;;;;;;;;;;;10.60;99.90;;;;;;4850262;29;19924;-72
2023/01/04 15:04:41;;;;;;;;;;;10.60;99.90;;;;;;4850972;29;20590;-71
2023/01/04 15:07:27;;;;;;;;;;;10.50;99.90;;;;;;4864905;29;19932;-72
2023/01/04 15:09:52;;;;;;;;;;;10.50;99.90;;;;;;4843746;29;20077;-71
2023/01/04 15:12:18;;;;;;;;;;;10.50;99.90;;;;;;4839393;29;19980;-71
2023/01/04 15:14:43;;;;;;;;;;;10.50;99.90;;;;;;4844883;29;19924;-71